RYR36T LIBD-LPPT
Flight info
| Callsign | RYR36T |
|---|---|
| Flight time | 3h 8m |
| Altitude | 33000 |
| Route | DIVKU DCT RIFFI DCT MADKA DCT NESUL DCT MUREN/N0453F340 DCT XIKEN/N0453F350 N975 RAMON T520 CMA Z596 EDIMU DCT NVS L185 CCS DCT UPULO |
| Aircraft | B738/M-SDE2E3FGHIRWXY/LB1 |
Departure
| Time | 2026-04-20 17:14 |
|---|---|
| Airport | Bari Karol Wojtyła International Airport (LIBD) |
Arrival
| Time | 2026-04-20 20:22 |
|---|---|
| Airport | Lisbon Humberto Delgado Airport (LPPT) |
| Time | Latitude | Longitude | Altitude | Speed | Heading |
|---|---|---|---|---|---|
| 2026-04-20 17:06 | 41.13550 | 16.76396 | 175 ft | 0 kts | 160° |
| 2026-04-20 17:08 | 41.13560 | 16.76391 | 148 ft | 3 kts | 160° |
| 2026-04-20 17:09 | 41.13578 | 16.76382 | 147 ft | 2 kts | 160° |
| 2026-04-20 17:09 | 41.13594 | 16.76375 | 147 ft | 3 kts | 180° |
| 2026-04-20 17:09 | 41.13610 | 16.76380 | 147 ft | 3 kts | 230° |
| 2026-04-20 17:09 | 41.13619 | 16.76401 | 146 ft | 2 kts | 249° |
| 2026-04-20 17:10 | 41.13621 | 16.76406 | 145 ft | 1 kts | 249° |
| 2026-04-20 17:11 | 41.13619 | 16.76397 | 146 ft | 4 kts | 249° |
| 2026-04-20 17:11 | 41.13603 | 16.76344 | 148 ft | 9 kts | 249° |
| 2026-04-20 17:11 | 41.13575 | 16.76244 | 151 ft | 15 kts | 249° |
| 2026-04-20 17:11 | 41.13559 | 16.76128 | 154 ft | 15 kts | 296° |
| 2026-04-20 17:12 | 41.13625 | 16.75984 | 156 ft | 21 kts | 278° |
| 2026-04-20 17:12 | 41.13584 | 16.75785 | 163 ft | 25 kts | 249° |
| 2026-04-20 17:12 | 41.13518 | 16.75548 | 168 ft | 30 kts | 250° |
| 2026-04-20 17:12 | 41.13437 | 16.75265 | 171 ft | 35 kts | 249° |
| 2026-04-20 17:13 | 41.13347 | 16.74948 | 181 ft | 38 kts | 250° |
| 2026-04-20 17:13 | 41.13251 | 16.74607 | 205 ft | 41 kts | 249° |
| 2026-04-20 17:13 | 41.13165 | 16.74302 | 207 ft | 31 kts | 260° |
| 2026-04-20 17:13 | 41.13282 | 16.74110 | 197 ft | 22 kts | 11° |
| 2026-04-20 17:14 | 41.13377 | 16.74380 | 200 ft | 68 kts | 69° |
| 2026-04-20 17:14 | 41.13645 | 16.75314 | 172 ft | 145 kts | 69° |
| 2026-04-20 17:14 | 41.14055 | 16.76765 | 529 ft | 182 kts | 70° |
| 2026-04-20 17:14 | 41.14521 | 16.78441 | 1248 ft | 196 kts | 71° |
| 2026-04-20 17:15 | 41.14958 | 16.80119 | 2380 ft | 193 kts | 71° |
| 2026-04-20 17:15 | 41.15356 | 16.81770 | 3455 ft | 186 kts | 71° |
| 2026-04-20 17:15 | 41.15809 | 16.83444 | 3935 ft | 204 kts | 65° |
| 2026-04-20 17:15 | 41.16609 | 16.85111 | 4132 ft | 224 kts | 34° |
| 2026-04-20 17:16 | 41.18079 | 16.85780 | 4328 ft | 232 kts | 353° |
| 2026-04-20 17:16 | 41.19552 | 16.85028 | 4660 ft | 234 kts | 317° |
| 2026-04-20 17:16 | 41.20534 | 16.83328 | 5161 ft | 234 kts | 296° |
| 2026-04-20 17:16 | 41.21195 | 16.81333 | 5689 ft | 237 kts | 291° |
| 2026-04-20 17:17 | 41.21803 | 16.79240 | 6042 ft | 251 kts | 290° |
| 2026-04-20 17:17 | 41.22434 | 16.77032 | 6479 ft | 263 kts | 290° |
| 2026-04-20 17:17 | 41.23094 | 16.74738 | 7213 ft | 265 kts | 291° |
| 2026-04-20 17:17 | 41.23756 | 16.72465 | 7979 ft | 267 kts | 291° |
| 2026-04-20 17:18 | 41.24440 | 16.70140 | 8707 ft | 271 kts | 291° |
| 2026-04-20 17:18 | 41.25128 | 16.67815 | 9425 ft | 275 kts | 292° |
| 2026-04-20 17:18 | 41.25839 | 16.65424 | 10121 ft | 279 kts | 292° |
| 2026-04-20 17:18 | 41.26576 | 16.62952 | 10451 ft | 297 kts | 292° |
| 2026-04-20 17:19 | 41.27370 | 16.60299 | 10625 ft | 319 kts | 292° |
| 2026-04-20 17:19 | 41.28208 | 16.57500 | 10794 ft | 339 kts | 292° |
| 2026-04-20 17:19 | 41.29108 | 16.54490 | 10999 ft | 357 kts | 292° |
| 2026-04-20 17:19 | 41.30028 | 16.51415 | 11492 ft | 364 kts | 292° |
| 2026-04-20 17:20 | 41.30970 | 16.48260 | 12163 ft | 366 kts | 292° |
| 2026-04-20 17:20 | 41.31907 | 16.45122 | 12822 ft | 368 kts | 292° |
| 2026-04-20 17:20 | 41.32853 | 16.41952 | 13460 ft | 371 kts | 292° |
| 2026-04-20 17:20 | 41.33814 | 16.38725 | 14050 ft | 374 kts | 292° |
| 2026-04-20 17:21 | 41.34780 | 16.35481 | 14669 ft | 376 kts | 292° |
| 2026-04-20 17:21 | 41.35745 | 16.32234 | 15284 ft | 378 kts | 292° |
| 2026-04-20 17:21 | 41.36705 | 16.29001 | 15876 ft | 379 kts | 292° |
| 2026-04-20 17:21 | 41.37683 | 16.25701 | 16459 ft | 381 kts | 292° |
| 2026-04-20 17:22 | 41.38656 | 16.22416 | 17023 ft | 384 kts | 292° |
| 2026-04-20 17:22 | 41.39636 | 16.19103 | 17580 ft | 386 kts | 292° |
| 2026-04-20 17:22 | 41.40622 | 16.15766 | 18154 ft | 388 kts | 292° |
| 2026-04-20 17:22 | 41.41612 | 16.12409 | 18645 ft | 390 kts | 292° |
| 2026-04-20 17:23 | 41.42606 | 16.09036 | 19134 ft | 391 kts | 292° |
| 2026-04-20 17:23 | 41.43596 | 16.05672 | 19603 ft | 393 kts | 292° |
| 2026-04-20 17:23 | 41.44597 | 16.02268 | 20065 ft | 395 kts | 292° |
| 2026-04-20 17:23 | 41.45599 | 15.98850 | 20516 ft | 398 kts | 292° |
| 2026-04-20 17:24 | 41.46618 | 15.95377 | 20975 ft | 399 kts | 292° |
| 2026-04-20 17:24 | 41.47623 | 15.91943 | 21416 ft | 401 kts | 292° |
| 2026-04-20 17:24 | 41.48634 | 15.88468 | 21854 ft | 403 kts | 291° |
| 2026-04-20 17:24 | 41.49366 | 15.84830 | 22270 ft | 407 kts | 282° |
| 2026-04-20 17:25 | 41.49708 | 15.81099 | 22692 ft | 411 kts | 275° |
| 2026-04-20 17:25 | 41.49633 | 15.77223 | 23096 ft | 415 kts | 268° |
| 2026-04-20 17:25 | 41.49372 | 15.73428 | 23492 ft | 418 kts | 267° |
| 2026-04-20 17:25 | 41.49077 | 15.69540 | 23830 ft | 419 kts | 267° |
| 2026-04-20 17:26 | 41.48779 | 15.65656 | 24163 ft | 421 kts | 267° |
| 2026-04-20 17:26 | 41.48485 | 15.61794 | 24476 ft | 423 kts | 267° |
| 2026-04-20 17:26 | 41.48192 | 15.57869 | 24788 ft | 424 kts | 267° |
| 2026-04-20 17:26 | 41.47903 | 15.53930 | 25098 ft | 426 kts | 267° |
| 2026-04-20 17:27 | 41.47619 | 15.50020 | 25404 ft | 428 kts | 268° |
| 2026-04-20 17:27 | 41.47331 | 15.46052 | 25698 ft | 429 kts | 268° |
| 2026-04-20 17:27 | 41.47043 | 15.42064 | 25990 ft | 431 kts | 268° |
| 2026-04-20 17:27 | 41.46757 | 15.38128 | 26271 ft | 432 kts | 268° |
| 2026-04-20 17:28 | 41.46463 | 15.34102 | 26549 ft | 434 kts | 268° |
| 2026-04-20 17:28 | 41.46171 | 15.30124 | 26818 ft | 435 kts | 268° |
| 2026-04-20 17:28 | 41.45874 | 15.26084 | 27076 ft | 437 kts | 268° |
| 2026-04-20 17:28 | 41.45573 | 15.22029 | 27448 ft | 436 kts | 268° |
| 2026-04-20 17:29 | 41.45276 | 15.18053 | 27891 ft | 433 kts | 268° |
| 2026-04-20 17:29 | 41.44979 | 15.14092 | 28323 ft | 431 kts | 268° |
| 2026-04-20 17:29 | 41.44679 | 15.10105 | 28717 ft | 430 kts | 268° |
| 2026-04-20 17:29 | 41.44377 | 15.06111 | 29106 ft | 430 kts | 268° |
| 2026-04-20 17:30 | 41.44079 | 15.02185 | 29466 ft | 429 kts | 268° |
| 2026-04-20 17:30 | 41.43777 | 14.98225 | 29905 ft | 427 kts | 268° |
| 2026-04-20 17:30 | 41.43475 | 14.94285 | 30261 ft | 425 kts | 268° |
| 2026-04-20 17:30 | 41.43177 | 14.90404 | 30498 ft | 426 kts | 268° |
| 2026-04-20 17:31 | 41.42875 | 14.86493 | 30781 ft | 425 kts | 268° |
| 2026-04-20 17:31 | 41.42572 | 14.82590 | 31131 ft | 423 kts | 268° |
| 2026-04-20 17:31 | 41.42267 | 14.78674 | 31449 ft | 421 kts | 268° |
| 2026-04-20 17:31 | 41.41965 | 14.74815 | 31722 ft | 421 kts | 268° |
| 2026-04-20 17:32 | 41.41659 | 14.70924 | 32001 ft | 421 kts | 268° |
| 2026-04-20 17:32 | 41.41355 | 14.67070 | 32313 ft | 419 kts | 268° |
| 2026-04-20 17:32 | 41.41047 | 14.63189 | 32636 ft | 418 kts | 268° |
| 2026-04-20 17:32 | 41.40741 | 14.59346 | 32915 ft | 417 kts | 268° |
| 2026-04-20 17:33 | 41.40434 | 14.55510 | 33050 ft | 418 kts | 268° |
| 2026-04-20 17:33 | 41.39815 | 14.47815 | 33033 ft | 418 kts | 267° |
| 2026-04-20 17:34 | 41.39190 | 14.40121 | 33041 ft | 415 kts | 267° |
| 2026-04-20 17:34 | 41.38569 | 14.32549 | 33068 ft | 412 kts | 267° |
| 2026-04-20 17:35 | 41.37945 | 14.24980 | 33067 ft | 411 kts | 267° |
| 2026-04-20 17:35 | 41.37316 | 14.17419 | 33059 ft | 411 kts | 267° |
| 2026-04-20 17:36 | 41.36789 | 14.11129 | 33076 ft | 411 kts | 267° |
| 2026-04-20 17:36 | 41.36147 | 14.03525 | 33071 ft | 412 kts | 267° |
| 2026-04-20 17:37 | 41.35505 | 13.95970 | 33078 ft | 414 kts | 266° |
| 2026-04-20 17:37 | 41.34849 | 13.88320 | 33073 ft | 416 kts | 266° |
| 2026-04-20 17:38 | 41.34185 | 13.80645 | 33071 ft | 417 kts | 266° |
| 2026-04-20 17:38 | 41.33519 | 13.73011 | 33057 ft | 418 kts | 266° |
| 2026-04-20 17:39 | 41.32843 | 13.65316 | 33050 ft | 420 kts | 266° |
| 2026-04-20 17:39 | 41.32157 | 13.57561 | 33068 ft | 420 kts | 266° |
| 2026-04-20 17:40 | 41.31470 | 13.49862 | 33058 ft | 419 kts | 266° |
| 2026-04-20 17:40 | 41.30778 | 13.42167 | 33058 ft | 418 kts | 266° |
| 2026-04-20 17:41 | 41.30084 | 13.34507 | 33058 ft | 417 kts | 266° |
| 2026-04-20 17:41 | 41.29386 | 13.26863 | 33059 ft | 416 kts | 266° |
| 2026-04-20 17:42 | 41.28684 | 13.19219 | 33060 ft | 416 kts | 266° |
| 2026-04-20 17:42 | 41.27976 | 13.11573 | 33057 ft | 415 kts | 266° |
| 2026-04-20 17:43 | 41.27265 | 13.03951 | 33062 ft | 416 kts | 266° |
| 2026-04-20 17:43 | 41.26548 | 12.96320 | 33055 ft | 416 kts | 266° |
| 2026-04-20 17:44 | 41.25825 | 12.88683 | 33054 ft | 417 kts | 266° |
| 2026-04-20 17:44 | 41.25098 | 12.81056 | 33054 ft | 417 kts | 266° |
| 2026-04-20 17:45 | 41.24363 | 12.73394 | 33053 ft | 418 kts | 266° |
| 2026-04-20 17:45 | 41.23625 | 12.65765 | 33049 ft | 419 kts | 265° |
| 2026-04-20 17:46 | 41.22881 | 12.58110 | 33050 ft | 419 kts | 265° |
| 2026-04-20 17:46 | 41.22455 | 12.50393 | 33042 ft | 415 kts | 275° |
| 2026-04-20 17:47 | 41.22837 | 12.42769 | 33041 ft | 415 kts | 276° |
| 2026-04-20 17:47 | 41.23227 | 12.35103 | 33045 ft | 415 kts | 276° |
| 2026-04-20 17:48 | 41.23590 | 12.27487 | 33042 ft | 415 kts | 275° |
| 2026-04-20 17:48 | 41.23939 | 12.19818 | 33042 ft | 415 kts | 275° |
| 2026-04-20 17:49 | 41.24279 | 12.12151 | 33042 ft | 415 kts | 275° |
| 2026-04-20 17:49 | 41.24612 | 12.04504 | 33038 ft | 414 kts | 275° |
| 2026-04-20 17:50 | 41.24939 | 11.96908 | 33038 ft | 414 kts | 275° |
| 2026-04-20 17:50 | 41.25263 | 11.89245 | 33038 ft | 414 kts | 275° |
| 2026-04-20 17:51 | 41.25582 | 11.81598 | 33037 ft | 413 kts | 275° |
| 2026-04-20 17:51 | 41.25894 | 11.73992 | 33038 ft | 413 kts | 275° |
| 2026-04-20 17:52 | 41.26202 | 11.66376 | 33036 ft | 413 kts | 275° |
| 2026-04-20 17:52 | 41.26503 | 11.58772 | 33037 ft | 413 kts | 275° |
| 2026-04-20 17:53 | 41.26802 | 11.51113 | 33038 ft | 413 kts | 275° |
| 2026-04-20 17:53 | 41.27094 | 11.43515 | 33038 ft | 413 kts | 275° |
| 2026-04-20 17:54 | 41.27383 | 11.35848 | 33035 ft | 413 kts | 275° |
| 2026-04-20 17:54 | 41.27666 | 11.28211 | 33032 ft | 413 kts | 275° |
| 2026-04-20 17:55 | 41.27942 | 11.20618 | 33033 ft | 414 kts | 275° |
| 2026-04-20 17:55 | 41.28216 | 11.12958 | 33030 ft | 414 kts | 274° |
| 2026-04-20 17:56 | 41.28485 | 11.05287 | 33034 ft | 414 kts | 274° |
| 2026-04-20 17:56 | 41.28747 | 10.97647 | 33031 ft | 415 kts | 274° |
| 2026-04-20 17:57 | 41.29005 | 10.90015 | 33030 ft | 415 kts | 274° |
| 2026-04-20 17:57 | 41.29259 | 10.82318 | 33027 ft | 415 kts | 274° |
| 2026-04-20 17:58 | 41.29508 | 10.74650 | 33024 ft | 415 kts | 274° |
| 2026-04-20 17:58 | 41.29751 | 10.66986 | 33023 ft | 415 kts | 274° |
| 2026-04-20 17:59 | 41.29989 | 10.59321 | 33028 ft | 415 kts | 274° |
| 2026-04-20 17:59 | 41.30221 | 10.51663 | 33023 ft | 415 kts | 274° |
| 2026-04-20 18:00 | 41.30450 | 10.43966 | 33022 ft | 415 kts | 274° |
| 2026-04-20 18:00 | 41.30673 | 10.36288 | 33026 ft | 415 kts | 274° |
| 2026-04-20 18:01 | 41.30891 | 10.28625 | 33023 ft | 415 kts | 274° |
| 2026-04-20 18:01 | 41.31103 | 10.20970 | 33023 ft | 414 kts | 274° |
| 2026-04-20 18:02 | 41.31310 | 10.13332 | 33021 ft | 414 kts | 274° |
| 2026-04-20 18:02 | 41.31512 | 10.05676 | 33018 ft | 414 kts | 274° |
| 2026-04-20 18:03 | 41.31709 | 9.98009 | 33017 ft | 414 kts | 274° |
| 2026-04-20 18:03 | 41.31901 | 9.90380 | 33018 ft | 414 kts | 273° |
| 2026-04-20 18:04 | 41.32089 | 9.82685 | 33018 ft | 415 kts | 273° |
| 2026-04-20 18:04 | 41.32271 | 9.75026 | 33018 ft | 415 kts | 273° |
| 2026-04-20 18:05 | 41.32534 | 9.63532 | 33015 ft | 415 kts | 273° |
| 2026-04-20 18:05 | 41.32704 | 9.55836 | 33018 ft | 416 kts | 273° |
| 2026-04-20 18:06 | 41.32869 | 9.48144 | 33017 ft | 416 kts | 273° |
| 2026-04-20 18:06 | 41.33029 | 9.40442 | 33024 ft | 416 kts | 273° |
| 2026-04-20 18:07 | 41.33184 | 9.32750 | 33027 ft | 416 kts | 273° |
| 2026-04-20 18:07 | 41.33175 | 9.25065 | 33020 ft | 417 kts | 265° |
| 2026-04-20 18:08 | 41.32368 | 9.17467 | 33023 ft | 417 kts | 264° |
| 2026-04-20 18:08 | 41.31519 | 9.09843 | 33029 ft | 416 kts | 264° |
| 2026-04-20 18:09 | 41.30684 | 9.02212 | 33034 ft | 416 kts | 264° |
| 2026-04-20 18:09 | 41.29858 | 8.94593 | 33029 ft | 416 kts | 264° |
| 2026-04-20 18:10 | 41.29033 | 8.86997 | 33035 ft | 416 kts | 264° |
| 2026-04-20 18:10 | 41.28203 | 8.79388 | 33034 ft | 417 kts | 264° |
| 2026-04-20 18:11 | 41.27365 | 8.71758 | 33044 ft | 417 kts | 264° |
| 2026-04-20 18:11 | 41.26523 | 8.64148 | 33042 ft | 418 kts | 264° |
| 2026-04-20 18:12 | 41.25672 | 8.56500 | 33041 ft | 418 kts | 264° |
| 2026-04-20 18:12 | 41.24813 | 8.48825 | 33041 ft | 419 kts | 263° |
| 2026-04-20 18:13 | 41.23951 | 8.41177 | 33041 ft | 420 kts | 263° |
| 2026-04-20 18:13 | 41.23078 | 8.33471 | 33045 ft | 420 kts | 263° |
| 2026-04-20 18:14 | 41.22204 | 8.25809 | 33046 ft | 421 kts | 263° |
| 2026-04-20 18:14 | 41.21324 | 8.18139 | 33044 ft | 421 kts | 263° |
| 2026-04-20 18:15 | 41.20434 | 8.10430 | 33041 ft | 421 kts | 263° |
| 2026-04-20 18:15 | 41.19544 | 8.02761 | 33044 ft | 421 kts | 263° |
| 2026-04-20 18:16 | 41.18650 | 7.95111 | 33040 ft | 421 kts | 263° |
| 2026-04-20 18:16 | 41.17744 | 7.87401 | 33043 ft | 421 kts | 263° |
| 2026-04-20 18:17 | 41.16840 | 7.79751 | 33043 ft | 421 kts | 263° |
| 2026-04-20 18:17 | 41.15923 | 7.72044 | 33042 ft | 421 kts | 263° |
| 2026-04-20 18:18 | 41.15008 | 7.64389 | 33039 ft | 421 kts | 263° |
| 2026-04-20 18:18 | 41.14088 | 7.56749 | 33041 ft | 420 kts | 263° |
| 2026-04-20 18:19 | 41.13159 | 7.49066 | 33038 ft | 420 kts | 263° |
| 2026-04-20 18:19 | 41.12231 | 7.41439 | 33040 ft | 420 kts | 263° |
| 2026-04-20 18:20 | 41.11292 | 7.33765 | 33037 ft | 420 kts | 262° |
| 2026-04-20 18:20 | 41.10354 | 7.26145 | 33033 ft | 421 kts | 262° |
| 2026-04-20 18:21 | 41.09567 | 7.19780 | 33039 ft | 421 kts | 262° |
| 2026-04-20 18:21 | 41.08457 | 7.10843 | 33038 ft | 421 kts | 262° |
| 2026-04-20 18:22 | 41.07664 | 7.04457 | 33038 ft | 421 kts | 264° |
| 2026-04-20 18:22 | 41.07440 | 6.96700 | 33038 ft | 420 kts | 271° |
| 2026-04-20 18:23 | 41.07495 | 6.88976 | 33040 ft | 420 kts | 271° |
| 2026-04-20 18:23 | 41.07534 | 6.81219 | 33039 ft | 420 kts | 271° |
| 2026-04-20 18:24 | 41.07549 | 6.73465 | 33038 ft | 421 kts | 271° |
| 2026-04-20 18:24 | 41.07552 | 6.65740 | 33035 ft | 421 kts | 271° |
| 2026-04-20 18:25 | 41.07547 | 6.58010 | 33036 ft | 421 kts | 271° |
| 2026-04-20 18:25 | 41.07537 | 6.50224 | 33036 ft | 421 kts | 271° |
| 2026-04-20 18:26 | 41.07523 | 6.42430 | 33038 ft | 421 kts | 271° |
| 2026-04-20 18:26 | 41.07503 | 6.34717 | 33040 ft | 421 kts | 271° |
| 2026-04-20 18:27 | 41.07478 | 6.26925 | 33046 ft | 421 kts | 271° |
| 2026-04-20 18:27 | 41.07448 | 6.19167 | 33039 ft | 421 kts | 271° |
| 2026-04-20 18:28 | 41.07412 | 6.11470 | 33034 ft | 421 kts | 271° |
| 2026-04-20 18:28 | 41.07372 | 6.03717 | 33033 ft | 420 kts | 270° |
| 2026-04-20 18:29 | 41.07326 | 5.95935 | 33030 ft | 420 kts | 270° |
| 2026-04-20 18:29 | 41.07275 | 5.88193 | 33038 ft | 420 kts | 270° |
| 2026-04-20 18:30 | 41.07219 | 5.80476 | 33044 ft | 420 kts | 270° |
| 2026-04-20 18:30 | 41.07158 | 5.72724 | 33031 ft | 420 kts | 270° |
| 2026-04-20 18:31 | 41.07092 | 5.64990 | 33032 ft | 420 kts | 270° |
| 2026-04-20 18:31 | 41.07020 | 5.57248 | 33034 ft | 420 kts | 270° |
| 2026-04-20 18:32 | 41.06943 | 5.49505 | 33035 ft | 420 kts | 270° |
| 2026-04-20 18:32 | 41.06862 | 5.41786 | 33045 ft | 420 kts | 270° |
| 2026-04-20 18:33 | 41.06774 | 5.34013 | 33032 ft | 421 kts | 270° |
| 2026-04-20 18:33 | 41.06682 | 5.26242 | 33039 ft | 421 kts | 270° |
| 2026-04-20 18:34 | 41.06585 | 5.18525 | 33040 ft | 421 kts | 270° |
| 2026-04-20 18:34 | 41.06482 | 5.10769 | 33034 ft | 421 kts | 270° |
| 2026-04-20 18:35 | 41.06374 | 5.03011 | 33034 ft | 421 kts | 270° |
| 2026-04-20 18:35 | 41.06260 | 4.95218 | 33043 ft | 421 kts | 270° |
| 2026-04-20 18:36 | 41.06142 | 4.87485 | 33036 ft | 421 kts | 270° |
| 2026-04-20 18:36 | 41.06019 | 4.79757 | 33032 ft | 422 kts | 270° |
| 2026-04-20 18:37 | 41.05891 | 4.71992 | 33034 ft | 422 kts | 270° |
| 2026-04-20 18:37 | 41.05871 | 4.64201 | 33030 ft | 421 kts | 274° |
| 2026-04-20 18:38 | 41.06275 | 4.56491 | 33034 ft | 421 kts | 275° |
| 2026-04-20 18:38 | 41.06734 | 4.48736 | 33035 ft | 421 kts | 275° |
| 2026-04-20 18:39 | 41.07167 | 4.41012 | 33037 ft | 422 kts | 275° |
| 2026-04-20 18:39 | 41.07579 | 4.33236 | 33041 ft | 422 kts | 275° |
| 2026-04-20 18:40 | 41.07978 | 4.25492 | 33033 ft | 422 kts | 275° |
| 2026-04-20 18:40 | 41.08370 | 4.17749 | 33034 ft | 422 kts | 275° |
| 2026-04-20 18:41 | 41.08758 | 4.09985 | 33036 ft | 422 kts | 275° |
| 2026-04-20 18:41 | 41.09139 | 4.02261 | 33033 ft | 422 kts | 275° |
| 2026-04-20 18:42 | 41.09518 | 3.94481 | 33033 ft | 422 kts | 275° |
| 2026-04-20 18:42 | 41.09892 | 3.86705 | 33036 ft | 422 kts | 275° |
| 2026-04-20 18:43 | 41.10258 | 3.78973 | 33034 ft | 422 kts | 274° |
| 2026-04-20 18:43 | 41.10620 | 3.71218 | 33034 ft | 421 kts | 274° |
| 2026-04-20 18:44 | 41.10977 | 3.63447 | 33037 ft | 421 kts | 274° |
| 2026-04-20 18:44 | 41.11328 | 3.55699 | 33033 ft | 421 kts | 274° |
| 2026-04-20 18:45 | 41.11675 | 3.47933 | 33033 ft | 421 kts | 274° |
| 2026-04-20 18:45 | 41.12014 | 3.40219 | 33036 ft | 421 kts | 274° |
| 2026-04-20 18:46 | 41.12350 | 3.32449 | 33036 ft | 421 kts | 274° |
| 2026-04-20 18:46 | 41.12681 | 3.24703 | 33033 ft | 421 kts | 274° |
| 2026-04-20 18:47 | 41.13007 | 3.16933 | 33034 ft | 421 kts | 274° |
| 2026-04-20 18:47 | 41.13326 | 3.09182 | 33034 ft | 421 kts | 274° |
| 2026-04-20 18:48 | 41.13642 | 3.01416 | 33037 ft | 421 kts | 274° |
| 2026-04-20 18:48 | 41.13951 | 2.93658 | 33038 ft | 421 kts | 274° |
| 2026-04-20 18:49 | 41.14256 | 2.85906 | 33039 ft | 421 kts | 274° |
| 2026-04-20 18:49 | 41.14554 | 2.78158 | 33041 ft | 420 kts | 274° |
| 2026-04-20 18:50 | 41.14848 | 2.70401 | 33046 ft | 420 kts | 274° |
| 2026-04-20 18:50 | 41.15135 | 2.62701 | 33049 ft | 420 kts | 274° |
| 2026-04-20 18:51 | 41.15418 | 2.54963 | 33046 ft | 419 kts | 274° |
| 2026-04-20 18:51 | 41.15694 | 2.47260 | 33048 ft | 419 kts | 274° |
| 2026-04-20 18:52 | 41.15967 | 2.39525 | 33048 ft | 419 kts | 273° |
| 2026-04-20 18:52 | 41.16233 | 2.31816 | 33050 ft | 418 kts | 273° |
| 2026-04-20 18:53 | 41.16493 | 2.24136 | 33054 ft | 418 kts | 273° |
| 2026-04-20 18:53 | 41.16749 | 2.16416 | 33053 ft | 418 kts | 273° |
| 2026-04-20 18:54 | 41.17001 | 2.08697 | 33054 ft | 418 kts | 273° |
| 2026-04-20 18:54 | 41.17245 | 2.01035 | 33051 ft | 418 kts | 273° |
| 2026-04-20 18:55 | 41.17486 | 1.93315 | 33053 ft | 417 kts | 273° |
| 2026-04-20 18:55 | 41.17721 | 1.85616 | 33053 ft | 417 kts | 273° |
| 2026-04-20 18:56 | 41.17951 | 1.77918 | 33051 ft | 417 kts | 272° |
| 2026-04-20 18:56 | 41.18176 | 1.70198 | 33048 ft | 417 kts | 272° |
| 2026-04-20 18:57 | 41.18395 | 1.62526 | 33044 ft | 417 kts | 272° |
| 2026-04-20 18:57 | 41.18609 | 1.54840 | 33043 ft | 417 kts | 272° |
| 2026-04-20 18:58 | 41.18819 | 1.47131 | 33042 ft | 418 kts | 272° |
| 2026-04-20 18:58 | 41.19023 | 1.39446 | 33033 ft | 418 kts | 272° |
| 2026-04-20 18:59 | 41.19223 | 1.31741 | 33030 ft | 418 kts | 272° |
| 2026-04-20 18:59 | 41.19418 | 1.24024 | 33029 ft | 418 kts | 272° |
| 2026-04-20 19:00 | 41.19534 | 1.16276 | 33020 ft | 419 kts | 267° |
| 2026-04-20 19:00 | 41.18691 | 1.08643 | 33019 ft | 419 kts | 261° |
| 2026-04-20 19:01 | 41.17696 | 1.00964 | 33028 ft | 420 kts | 261° |
| 2026-04-20 19:01 | 41.16738 | 0.93366 | 33032 ft | 420 kts | 261° |
| 2026-04-20 19:02 | 41.15786 | 0.85722 | 33018 ft | 420 kts | 261° |
| 2026-04-20 19:02 | 41.14832 | 0.78081 | 33015 ft | 421 kts | 261° |
| 2026-04-20 19:03 | 41.13867 | 0.70398 | 33011 ft | 421 kts | 261° |
| 2026-04-20 19:03 | 41.13064 | 0.64035 | 33002 ft | 420 kts | 261° |
| 2026-04-20 19:04 | 41.11949 | 0.55136 | 32999 ft | 419 kts | 261° |
| 2026-04-20 19:04 | 41.10990 | 0.47527 | 32989 ft | 418 kts | 261° |
| 2026-04-20 19:05 | 41.10175 | 0.41199 | 32989 ft | 417 kts | 261° |
| 2026-04-20 19:05 | 41.09021 | 0.32374 | 32989 ft | 416 kts | 261° |
| 2026-04-20 19:06 | 41.08195 | 0.26083 | 32983 ft | 416 kts | 261° |
| 2026-04-20 19:06 | 41.07198 | 0.18511 | 32975 ft | 415 kts | 261° |
| 2026-04-20 19:07 | 41.06206 | 0.11003 | 32970 ft | 414 kts | 261° |
| 2026-04-20 19:07 | 41.05209 | 0.03504 | 32972 ft | 414 kts | 261° |
| 2026-04-20 19:08 | 41.03700 | -0.07780 | 32968 ft | 414 kts | 261° |
| 2026-04-20 19:09 | 41.02690 | -0.15288 | 32970 ft | 415 kts | 261° |
| 2026-04-20 19:09 | 41.01669 | -0.22840 | 32966 ft | 415 kts | 261° |
| 2026-04-20 19:10 | 41.00647 | -0.30354 | 32967 ft | 415 kts | 260° |
| 2026-04-20 19:10 | 40.99626 | -0.37859 | 32971 ft | 416 kts | 260° |
| 2026-04-20 19:11 | 40.98596 | -0.45406 | 32980 ft | 416 kts | 260° |
| 2026-04-20 19:11 | 40.97564 | -0.52937 | 32981 ft | 417 kts | 260° |
| 2026-04-20 19:12 | 40.96525 | -0.60475 | 32986 ft | 417 kts | 260° |
| 2026-04-20 19:12 | 40.95476 | -0.68048 | 33000 ft | 417 kts | 260° |
| 2026-04-20 19:13 | 40.94422 | -0.75599 | 32992 ft | 418 kts | 259° |
| 2026-04-20 19:13 | 40.93358 | -0.83165 | 33007 ft | 418 kts | 259° |
| 2026-04-20 19:14 | 40.92292 | -0.90722 | 33000 ft | 419 kts | 259° |
| 2026-04-20 19:14 | 40.91217 | -0.98310 | 33004 ft | 419 kts | 259° |
| 2026-04-20 19:15 | 40.90154 | -1.05777 | 33012 ft | 420 kts | 259° |
| 2026-04-20 19:15 | 40.89070 | -1.13350 | 33019 ft | 421 kts | 259° |
| 2026-04-20 19:16 | 40.87975 | -1.20971 | 33019 ft | 421 kts | 259° |
| 2026-04-20 19:16 | 40.86880 | -1.28552 | 33015 ft | 422 kts | 259° |
| 2026-04-20 19:17 | 40.85686 | -1.36168 | 33019 ft | 422 kts | 257° |
| 2026-04-20 19:17 | 40.84407 | -1.43703 | 33022 ft | 422 kts | 257° |
| 2026-04-20 19:18 | 40.83128 | -1.51255 | 33018 ft | 423 kts | 257° |
| 2026-04-20 19:18 | 40.81849 | -1.58862 | 33019 ft | 423 kts | 257° |
| 2026-04-20 19:19 | 40.80574 | -1.66432 | 33036 ft | 423 kts | 257° |
| 2026-04-20 19:19 | 40.79297 | -1.73984 | 33032 ft | 424 kts | 257° |
| 2026-04-20 19:20 | 40.78004 | -1.81599 | 33031 ft | 424 kts | 257° |
| 2026-04-20 19:20 | 40.76760 | -1.89185 | 33033 ft | 424 kts | 258° |
| 2026-04-20 19:21 | 40.75557 | -1.96845 | 33035 ft | 425 kts | 258° |
| 2026-04-20 19:21 | 40.74361 | -2.04437 | 33032 ft | 425 kts | 258° |
| 2026-04-20 19:22 | 40.73148 | -2.12052 | 33039 ft | 425 kts | 258° |
| 2026-04-20 19:22 | 40.71916 | -2.19723 | 33020 ft | 425 kts | 258° |
| 2026-04-20 19:23 | 40.70691 | -2.27320 | 33024 ft | 426 kts | 258° |
| 2026-04-20 19:23 | 40.69451 | -2.34968 | 33017 ft | 426 kts | 258° |
| 2026-04-20 19:24 | 40.68214 | -2.42567 | 33011 ft | 426 kts | 258° |
| 2026-04-20 19:24 | 40.66964 | -2.50213 | 33012 ft | 425 kts | 258° |
| 2026-04-20 19:25 | 40.65717 | -2.57811 | 33016 ft | 425 kts | 258° |
| 2026-04-20 19:25 | 40.64464 | -2.65407 | 33007 ft | 425 kts | 257° |
| 2026-04-20 19:26 | 40.63204 | -2.73013 | 33008 ft | 424 kts | 257° |
| 2026-04-20 19:26 | 40.61937 | -2.80628 | 33009 ft | 424 kts | 257° |
| 2026-04-20 19:27 | 40.60674 | -2.88192 | 33011 ft | 424 kts | 257° |
| 2026-04-20 19:27 | 40.59398 | -2.95792 | 33007 ft | 424 kts | 257° |
| 2026-04-20 19:28 | 40.58129 | -3.03326 | 33004 ft | 424 kts | 257° |
| 2026-04-20 19:28 | 40.56841 | -3.10939 | 33005 ft | 424 kts | 257° |
| 2026-04-20 19:29 | 40.55571 | -3.18409 | 32995 ft | 424 kts | 257° |
| 2026-04-20 19:29 | 40.54491 | -3.24737 | 32996 ft | 424 kts | 257° |
| 2026-04-20 19:30 | 40.52974 | -3.33594 | 33000 ft | 425 kts | 257° |
| 2026-04-20 19:30 | 40.51671 | -3.41164 | 32996 ft | 425 kts | 257° |
| 2026-04-20 19:31 | 40.50367 | -3.48712 | 33003 ft | 425 kts | 257° |
| 2026-04-20 19:31 | 40.49059 | -3.56251 | 33004 ft | 425 kts | 257° |
| 2026-04-20 19:32 | 40.47733 | -3.63861 | 33006 ft | 425 kts | 257° |
| 2026-04-20 19:32 | 40.46411 | -3.71414 | 33003 ft | 425 kts | 257° |
| 2026-04-20 19:33 | 40.45081 | -3.78985 | 32998 ft | 426 kts | 257° |
| 2026-04-20 19:33 | 40.43751 | -3.86525 | 33003 ft | 425 kts | 256° |
| 2026-04-20 19:34 | 40.42410 | -3.94096 | 33004 ft | 426 kts | 256° |
| 2026-04-20 19:34 | 40.41063 | -4.01669 | 33004 ft | 426 kts | 256° |
| 2026-04-20 19:35 | 40.39713 | -4.09235 | 33003 ft | 426 kts | 256° |
| 2026-04-20 19:35 | 40.38357 | -4.16802 | 33000 ft | 426 kts | 256° |
| 2026-04-20 19:36 | 40.36955 | -4.24310 | 32996 ft | 425 kts | 252° |
| 2026-04-20 19:36 | 40.34557 | -4.31391 | 32997 ft | 425 kts | 244° |
| 2026-04-20 19:37 | 40.31898 | -4.38314 | 33000 ft | 425 kts | 244° |
| 2026-04-20 19:37 | 40.29274 | -4.45238 | 32992 ft | 425 kts | 244° |
| 2026-04-20 19:38 | 40.26665 | -4.52172 | 32992 ft | 425 kts | 244° |
| 2026-04-20 19:38 | 40.24037 | -4.59146 | 32983 ft | 425 kts | 244° |
| 2026-04-20 19:39 | 40.21424 | -4.66066 | 32996 ft | 425 kts | 244° |
| 2026-04-20 19:39 | 40.18812 | -4.72984 | 32986 ft | 425 kts | 244° |
| 2026-04-20 19:40 | 40.16182 | -4.79940 | 32986 ft | 425 kts | 244° |
| 2026-04-20 19:40 | 40.13565 | -4.86846 | 32984 ft | 426 kts | 243° |
| 2026-04-20 19:41 | 40.10936 | -4.93764 | 32983 ft | 426 kts | 243° |
| 2026-04-20 19:41 | 40.08291 | -5.00710 | 32982 ft | 426 kts | 243° |
| 2026-04-20 19:42 | 40.05655 | -5.07617 | 32980 ft | 426 kts | 243° |
| 2026-04-20 19:42 | 40.02993 | -5.14572 | 32976 ft | 426 kts | 243° |
| 2026-04-20 19:43 | 40.00346 | -5.21474 | 32975 ft | 427 kts | 243° |
| 2026-04-20 19:43 | 39.97694 | -5.28374 | 32972 ft | 427 kts | 243° |
| 2026-04-20 19:44 | 39.95035 | -5.35278 | 32962 ft | 427 kts | 243° |
| 2026-04-20 19:44 | 39.92360 | -5.42205 | 32958 ft | 427 kts | 243° |
| 2026-04-20 19:45 | 39.89692 | -5.49103 | 32957 ft | 427 kts | 243° |
| 2026-04-20 19:45 | 39.87017 | -5.55996 | 32953 ft | 427 kts | 243° |
| 2026-04-20 19:46 | 39.84344 | -5.62859 | 32950 ft | 427 kts | 243° |
| 2026-04-20 19:46 | 39.81650 | -5.69757 | 32946 ft | 427 kts | 243° |
| 2026-04-20 19:47 | 39.78949 | -5.76665 | 32940 ft | 426 kts | 243° |
| 2026-04-20 19:47 | 39.76259 | -5.83529 | 32936 ft | 426 kts | 243° |
| 2026-04-20 19:48 | 39.73564 | -5.90391 | 32940 ft | 426 kts | 242° |
| 2026-04-20 19:48 | 39.70882 | -5.97202 | 32932 ft | 426 kts | 242° |
| 2026-04-20 19:49 | 39.68168 | -6.04081 | 32930 ft | 425 kts | 242° |
| 2026-04-20 19:49 | 39.65477 | -6.10886 | 32930 ft | 425 kts | 242° |
| 2026-04-20 19:50 | 39.62767 | -6.17725 | 32933 ft | 425 kts | 242° |
| 2026-04-20 19:50 | 39.60071 | -6.24512 | 32925 ft | 426 kts | 242° |
| 2026-04-20 19:51 | 39.57808 | -6.30199 | 32937 ft | 426 kts | 242° |
| 2026-04-20 19:51 | 39.56436 | -6.33641 | 32762 ft | 429 kts | 242° |
| 2026-04-20 19:51 | 39.54618 | -6.38198 | 32412 ft | 428 kts | 242° |
| 2026-04-20 19:51 | 39.53703 | -6.40490 | 32230 ft | 427 kts | 242° |
| 2026-04-20 19:52 | 39.52338 | -6.43902 | 31974 ft | 426 kts | 242° |
| 2026-04-20 19:52 | 39.50986 | -6.47335 | 31717 ft | 425 kts | 243° |
| 2026-04-20 19:52 | 39.49668 | -6.50727 | 31462 ft | 424 kts | 243° |
| 2026-04-20 19:52 | 39.48344 | -6.54149 | 31211 ft | 423 kts | 243° |
| 2026-04-20 19:53 | 39.47038 | -6.57524 | 30970 ft | 421 kts | 243° |
| 2026-04-20 19:53 | 39.45716 | -6.60930 | 30720 ft | 420 kts | 243° |
| 2026-04-20 19:53 | 39.44414 | -6.64279 | 30473 ft | 418 kts | 243° |
| 2026-04-20 19:53 | 39.43104 | -6.67641 | 30232 ft | 416 kts | 243° |
| 2026-04-20 19:54 | 39.41798 | -6.70986 | 29986 ft | 414 kts | 243° |
| 2026-04-20 19:54 | 39.40504 | -6.74295 | 29715 ft | 412 kts | 243° |
| 2026-04-20 19:54 | 39.39224 | -6.77565 | 29424 ft | 410 kts | 243° |
| 2026-04-20 19:54 | 39.37929 | -6.80870 | 29151 ft | 408 kts | 243° |
| 2026-04-20 19:55 | 39.36656 | -6.84114 | 28877 ft | 406 kts | 243° |
| 2026-04-20 19:55 | 39.35375 | -6.87373 | 28605 ft | 405 kts | 243° |
| 2026-04-20 19:55 | 39.34105 | -6.90605 | 28332 ft | 404 kts | 243° |
| 2026-04-20 19:55 | 39.32832 | -6.93839 | 28063 ft | 402 kts | 243° |
| 2026-04-20 19:56 | 39.31571 | -6.97039 | 27798 ft | 401 kts | 242° |
| 2026-04-20 19:56 | 39.30295 | -7.00274 | 27534 ft | 400 kts | 242° |
| 2026-04-20 19:56 | 39.29042 | -7.03445 | 27274 ft | 400 kts | 242° |
| 2026-04-20 19:56 | 39.27775 | -7.06650 | 27017 ft | 399 kts | 242° |
| 2026-04-20 19:57 | 39.26524 | -7.09812 | 26765 ft | 398 kts | 242° |
| 2026-04-20 19:57 | 39.25260 | -7.13004 | 26509 ft | 397 kts | 242° |
| 2026-04-20 19:57 | 39.23999 | -7.16184 | 26259 ft | 397 kts | 242° |
| 2026-04-20 19:57 | 39.22744 | -7.19345 | 26004 ft | 396 kts | 242° |
| 2026-04-20 19:58 | 39.21497 | -7.22484 | 25748 ft | 395 kts | 242° |
| 2026-04-20 19:58 | 39.20240 | -7.25643 | 25522 ft | 394 kts | 242° |
| 2026-04-20 19:58 | 39.18999 | -7.28761 | 25279 ft | 393 kts | 242° |
| 2026-04-20 19:58 | 39.17745 | -7.31906 | 25041 ft | 391 kts | 242° |
| 2026-04-20 19:59 | 39.16501 | -7.35024 | 24965 ft | 390 kts | 242° |
| 2026-04-20 19:59 | 39.15274 | -7.38097 | 24931 ft | 389 kts | 242° |
| 2026-04-20 19:59 | 39.14033 | -7.41203 | 24932 ft | 388 kts | 242° |
| 2026-04-20 19:59 | 39.12789 | -7.44311 | 24932 ft | 388 kts | 242° |
| 2026-04-20 20:00 | 39.11567 | -7.47360 | 24928 ft | 388 kts | 242° |
| 2026-04-20 20:00 | 39.10323 | -7.50457 | 24922 ft | 387 kts | 241° |
| 2026-04-20 20:00 | 39.09005 | -7.53506 | 24716 ft | 388 kts | 239° |
| 2026-04-20 20:00 | 39.07650 | -7.56459 | 24477 ft | 385 kts | 238° |
| 2026-04-20 20:01 | 39.06274 | -7.59400 | 24239 ft | 382 kts | 238° |
| 2026-04-20 20:01 | 39.04894 | -7.62341 | 24010 ft | 381 kts | 238° |
| 2026-04-20 20:01 | 39.03545 | -7.65228 | 23778 ft | 381 kts | 238° |
| 2026-04-20 20:01 | 39.02180 | -7.68163 | 23555 ft | 381 kts | 238° |
| 2026-04-20 20:02 | 39.00824 | -7.71088 | 23301 ft | 380 kts | 238° |
| 2026-04-20 20:02 | 38.99468 | -7.74020 | 23026 ft | 380 kts | 238° |
| 2026-04-20 20:02 | 38.98117 | -7.76943 | 22751 ft | 379 kts | 238° |
| 2026-04-20 20:02 | 38.96788 | -7.79818 | 22495 ft | 379 kts | 238° |
| 2026-04-20 20:03 | 38.95443 | -7.82726 | 22223 ft | 378 kts | 238° |
| 2026-04-20 20:03 | 38.94100 | -7.85631 | 21962 ft | 376 kts | 238° |
| 2026-04-20 20:03 | 38.92760 | -7.88525 | 21704 ft | 375 kts | 238° |
| 2026-04-20 20:03 | 38.91447 | -7.91359 | 21446 ft | 373 kts | 238° |
| 2026-04-20 20:04 | 38.90117 | -7.94224 | 21178 ft | 371 kts | 237° |
| 2026-04-20 20:04 | 38.88793 | -7.97078 | 20932 ft | 369 kts | 237° |
| 2026-04-20 20:04 | 38.87482 | -7.99898 | 20679 ft | 367 kts | 237° |
| 2026-04-20 20:04 | 38.86187 | -8.02683 | 20426 ft | 365 kts | 237° |
| 2026-04-20 20:05 | 38.84889 | -8.05471 | 20048 ft | 361 kts | 237° |
| 2026-04-20 20:05 | 38.83603 | -8.08231 | 19631 ft | 358 kts | 237° |
| 2026-04-20 20:05 | 38.82327 | -8.10968 | 19212 ft | 355 kts | 237° |
| 2026-04-20 20:05 | 38.81059 | -8.13685 | 18789 ft | 353 kts | 237° |
| 2026-04-20 20:06 | 38.79813 | -8.16352 | 18355 ft | 351 kts | 237° |
| 2026-04-20 20:06 | 38.78557 | -8.19037 | 17901 ft | 350 kts | 237° |
| 2026-04-20 20:06 | 38.77311 | -8.21699 | 17440 ft | 347 kts | 237° |
| 2026-04-20 20:06 | 38.76065 | -8.24361 | 16988 ft | 345 kts | 237° |
| 2026-04-20 20:07 | 38.74849 | -8.26953 | 16562 ft | 342 kts | 237° |
| 2026-04-20 20:07 | 38.73619 | -8.29576 | 16136 ft | 339 kts | 237° |
| 2026-04-20 20:07 | 38.72414 | -8.32143 | 15723 ft | 337 kts | 237° |
| 2026-04-20 20:07 | 38.71208 | -8.34710 | 15309 ft | 334 kts | 237° |
| 2026-04-20 20:08 | 38.70016 | -8.37244 | 14899 ft | 332 kts | 237° |
| 2026-04-20 20:08 | 38.68827 | -8.39772 | 14496 ft | 330 kts | 237° |
| 2026-04-20 20:08 | 38.67639 | -8.42294 | 14093 ft | 328 kts | 237° |
| 2026-04-20 20:08 | 38.66468 | -8.44777 | 13700 ft | 326 kts | 237° |
| 2026-04-20 20:09 | 38.65300 | -8.47255 | 13256 ft | 324 kts | 237° |
| 2026-04-20 20:09 | 38.64139 | -8.49713 | 12826 ft | 322 kts | 237° |
| 2026-04-20 20:09 | 38.62988 | -8.52150 | 12409 ft | 320 kts | 237° |
| 2026-04-20 20:09 | 38.61907 | -8.54635 | 12079 ft | 317 kts | 245° |
| 2026-04-20 20:10 | 38.61452 | -8.56444 | 11741 ft | 321 kts | 255° |
| 2026-04-20 20:10 | 38.61322 | -8.57292 | 11598 ft | 322 kts | 257° |
| 2026-04-20 20:10 | 38.60978 | -8.60002 | 11186 ft | 322 kts | 258° |
| 2026-04-20 20:10 | 38.60638 | -8.62834 | 10851 ft | 318 kts | 258° |
| 2026-04-20 20:11 | 38.60313 | -8.65561 | 10771 ft | 306 kts | 258° |
| 2026-04-20 20:11 | 38.59991 | -8.68211 | 10682 ft | 295 kts | 258° |
| 2026-04-20 20:11 | 38.59680 | -8.70734 | 10612 ft | 285 kts | 257° |
| 2026-04-20 20:11 | 38.59370 | -8.73204 | 10507 ft | 276 kts | 257° |
| 2026-04-20 20:12 | 38.59066 | -8.75606 | 10304 ft | 271 kts | 257° |
| 2026-04-20 20:12 | 38.58765 | -8.77959 | 10015 ft | 271 kts | 257° |
| 2026-04-20 20:12 | 38.58460 | -8.80334 | 9711 ft | 271 kts | 257° |
| 2026-04-20 20:13 | 38.57849 | -8.85083 | 9105 ft | 269 kts | 257° |
| 2026-04-20 20:13 | 38.57547 | -8.87418 | 8797 ft | 269 kts | 257° |
| 2026-04-20 20:13 | 38.57242 | -8.89782 | 8493 ft | 268 kts | 257° |
| 2026-04-20 20:13 | 38.56937 | -8.92137 | 8198 ft | 267 kts | 256° |
| 2026-04-20 20:14 | 38.56636 | -8.94455 | 7907 ft | 266 kts | 256° |
| 2026-04-20 20:14 | 38.56331 | -8.96808 | 7610 ft | 266 kts | 256° |
| 2026-04-20 20:14 | 38.56030 | -8.99122 | 7331 ft | 265 kts | 256° |
| 2026-04-20 20:14 | 38.55726 | -9.01449 | 7044 ft | 265 kts | 256° |
| 2026-04-20 20:15 | 38.55427 | -9.03752 | 6916 ft | 257 kts | 256° |
| 2026-04-20 20:15 | 38.55142 | -9.05943 | 6867 ft | 247 kts | 256° |
| 2026-04-20 20:15 | 38.54872 | -9.08019 | 6871 ft | 232 kts | 256° |
| 2026-04-20 20:15 | 38.54614 | -9.10000 | 6783 ft | 218 kts | 255° |
| 2026-04-20 20:16 | 38.54371 | -9.11856 | 6585 ft | 211 kts | 255° |
| 2026-04-20 20:16 | 38.54128 | -9.13693 | 6362 ft | 206 kts | 255° |
| 2026-04-20 20:16 | 38.53893 | -9.15479 | 6101 ft | 202 kts | 255° |
| 2026-04-20 20:16 | 38.53658 | -9.17241 | 5745 ft | 203 kts | 255° |
| 2026-04-20 20:17 | 38.53493 | -9.19029 | 5399 ft | 207 kts | 270° |
| 2026-04-20 20:17 | 38.54062 | -9.20694 | 5153 ft | 210 kts | 313° |
| 2026-04-20 20:17 | 38.55293 | -9.21666 | 4954 ft | 206 kts | 334° |
| 2026-04-20 20:17 | 38.56580 | -9.22354 | 4661 ft | 206 kts | 336° |
| 2026-04-20 20:18 | 38.57913 | -9.23043 | 4361 ft | 204 kts | 338° |
| 2026-04-20 20:18 | 38.59309 | -9.23319 | 3927 ft | 208 kts | 14° |
| 2026-04-20 20:18 | 38.60653 | -9.22759 | 3631 ft | 203 kts | 20° |
| 2026-04-20 20:18 | 38.61989 | -9.22205 | 3357 ft | 199 kts | 22° |
| 2026-04-20 20:19 | 38.63270 | -9.21572 | 3101 ft | 194 kts | 26° |
| 2026-04-20 20:19 | 38.64473 | -9.20934 | 2841 ft | 185 kts | 26° |
| 2026-04-20 20:19 | 38.65651 | -9.20300 | 2615 ft | 183 kts | 27° |
| 2026-04-20 20:19 | 38.66841 | -9.19659 | 2373 ft | 187 kts | 27° |
| 2026-04-20 20:20 | 38.68042 | -9.19014 | 2151 ft | 184 kts | 27° |
| 2026-04-20 20:20 | 38.69211 | -9.18384 | 1893 ft | 183 kts | 27° |
| 2026-04-20 20:20 | 38.70384 | -9.17754 | 1655 ft | 181 kts | 27° |
| 2026-04-20 20:20 | 38.71531 | -9.17138 | 1410 ft | 178 kts | 27° |
| 2026-04-20 20:21 | 38.72576 | -9.16577 | 1223 ft | 167 kts | 26° |
| 2026-04-20 20:21 | 38.73612 | -9.15994 | 997 ft | 159 kts | 26° |
| 2026-04-20 20:21 | 38.74612 | -9.15461 | 785 ft | 153 kts | 22° |
| 2026-04-20 20:21 | 38.75575 | -9.14972 | 611 ft | 148 kts | 24° |
| 2026-04-20 20:22 | 38.76223 | -9.14625 | 479 ft | 149 kts | 25° |
| 2026-04-20 20:22 | 38.77420 | -9.13976 | 345 ft | 123 kts | 23° |
| 2026-04-20 20:22 | 38.78068 | -9.13628 | 352 ft | 82 kts | 23° |
| 2026-04-20 20:22 | 38.78287 | -9.13477 | 358 ft | 24 kts | 38° |
| 2026-04-20 20:23 | 38.78379 | -9.13338 | 354 ft | 15 kts | 66° |
| 2026-04-20 20:23 | 38.78360 | -9.13269 | 353 ft | 9 kts | 166° |
| 2026-04-20 20:23 | 38.78286 | -9.13281 | 353 ft | 13 kts | 205° |
| 2026-04-20 20:23 | 38.78190 | -9.13335 | 352 ft | 17 kts | 203° |
| 2026-04-20 20:24 | 38.78068 | -9.13399 | 352 ft | 21 kts | 202° |
| 2026-04-20 20:24 | 38.77917 | -9.13383 | 340 ft | 24 kts | 169° |
| 2026-04-20 20:24 | 38.77741 | -9.13339 | 337 ft | 27 kts | 168° |
| 2026-04-20 20:24 | 38.77554 | -9.13311 | 333 ft | 26 kts | 170° |
| 2026-04-20 20:25 | 38.77375 | -9.13265 | 333 ft | 27 kts | 171° |
| 2026-04-20 20:25 | 38.77185 | -9.13220 | 334 ft | 28 kts | 168° |
| 2026-04-20 20:25 | 38.76987 | -9.13166 | 335 ft | 30 kts | 168° |
| 2026-04-20 20:25 | 38.76821 | -9.13125 | 334 ft | 17 kts | 181° |
| 2026-04-20 20:26 | 38.76768 | -9.13249 | 334 ft | 18 kts | 258° |
| 2026-04-20 20:26 | 38.76717 | -9.13406 | 333 ft | 20 kts | 223° |
| 2026-04-20 20:26 | 38.76644 | -9.13551 | 335 ft | 21 kts | 258° |
| 2026-04-20 20:26 | 38.76613 | -9.13658 | 333 ft | 10 kts | 211° |
| 2026-04-20 20:27 | 38.76550 | -9.13687 | 334 ft | 11 kts | 240° |
| 2026-04-20 20:27 | 38.76532 | -9.13783 | 336 ft | 10 kts | 254° |
| 2026-04-20 20:27 | 38.76498 | -9.13793 | 336 ft | 6 kts | 168° |
| 2026-04-20 20:27 | 38.76469 | -9.13785 | 336 ft | 2 kts | 168° |
| 2026-04-20 20:28 | 38.76459 | -9.13782 | 336 ft | 0 kts | 168° |
| 2026-04-20 20:28 | 38.76456 | -9.13782 | 334 ft | 0 kts | 168° |